createdAt,value
2018-02-23T00:00:12.527Z,51.84
2018-02-23T00:00:53.068Z,51.87
2018-02-23T00:01:33.681Z,51.96
2018-02-23T00:02:14.262Z,51.77
2018-02-23T00:02:54.862Z,51.93
2018-02-23T00:03:35.402Z,51.84
2018-02-23T00:04:16.031Z,51.75
2018-02-23T00:04:56.590Z,51.77
2018-02-23T00:05:37.178Z,52.22
2018-02-23T00:06:18.281Z,52.5
2018-02-23T00:06:58.935Z,52.41
2018-02-23T00:07:40.298Z,52.22
2018-02-23T00:08:21.256Z,52.22
2018-02-23T00:09:02.401Z,52.22
2018-02-23T00:09:55.032Z,52.31
2018-02-23T00:10:36.343Z,52.22
2018-02-23T00:11:16.571Z,52.5
2018-02-23T00:11:57.154Z,52.41
2018-02-23T00:12:37.680Z,52.03
2018-02-23T00:13:18.261Z,52.5
2018-02-23T00:13:58.886Z,52.03
2018-02-23T00:14:39.453Z,51.84
2018-02-23T00:15:20.042Z,51.93
2018-02-23T00:16:00.671Z,51.65
2018-02-23T00:16:41.205Z,51.93
2018-02-23T00:17:21.721Z,51.75
2018-02-23T00:18:02.302Z,51.84
2018-02-23T00:18:42.863Z,51.65
2018-02-23T00:19:23.428Z,51.46
2018-02-23T00:20:04.012Z,51.56
2018-02-23T00:20:44.626Z,51.65
2018-02-23T00:21:25.346Z,51.65
2018-02-23T00:22:05.905Z,51.18
2018-02-23T00:22:46.457Z,51.37
2018-02-23T00:23:27.021Z,51.18
2018-02-23T00:24:07.556Z,51.75
2018-02-23T00:24:48.115Z,51.75
2018-02-23T00:25:28.641Z,51.37
2018-02-23T00:26:09.222Z,51.56
2018-02-23T00:26:49.784Z,51.84
2018-02-23T00:27:30.348Z,51.65
2018-02-23T00:28:10.954Z,51.84
2018-02-23T00:28:51.680Z,51.75
2018-02-23T00:29:32.144Z,52.22
2018-02-23T00:30:12.749Z,52.03
2018-02-23T00:30:53.270Z,51.93
2018-02-23T00:31:33.894Z,52.03
2018-02-23T00:32:14.471Z,51.93
2018-02-23T00:32:55.025Z,51.93
2018-02-23T00:33:35.616Z,51.93
2018-02-23T00:34:16.164Z,52.22
2018-02-23T00:34:56.682Z,52.22
2018-02-23T00:35:37.234Z,51.93
2018-02-23T00:36:17.794Z,51.84
2018-02-23T00:36:58.319Z,51.84
2018-02-23T00:37:38.893Z,52.12
2018-02-23T00:38:19.519Z,51.75
2018-02-23T00:39:00.107Z,51.84
2018-02-23T00:39:40.643Z,52.12
2018-02-23T00:40:21.241Z,52.41
2018-02-23T00:41:01.816Z,52.22
2018-02-23T00:41:42.375Z,52.03
2018-02-23T00:42:22.902Z,52.6
2018-02-23T00:43:03.458Z,52.79
2018-02-23T00:43:44.071Z,52.88
2018-02-23T00:44:24.657Z,52.98
2018-02-23T00:45:05.290Z,52.98
2018-02-23T00:45:45.834Z,52.88
2018-02-23T00:46:26.393Z,52.69
2018-02-23T00:47:06.937Z,52.69
2018-02-23T00:47:47.520Z,52.88
2018-02-23T00:48:28.062Z,52.6
2018-02-23T00:49:08.596Z,52.69
2018-02-23T00:49:49.140Z,52.69
2018-02-23T00:50:29.724Z,52.41
2018-02-23T00:51:10.256Z,52.5
2018-02-23T00:51:50.794Z,52.69
2018-02-23T00:52:31.392Z,52.88
2018-02-23T00:53:11.914Z,52.69
2018-02-23T00:53:52.482Z,52.79
2018-02-23T00:54:33.048Z,53.17
2018-02-23T00:55:13.615Z,52.88
2018-02-23T00:55:54.180Z,52.6
2018-02-23T00:56:34.715Z,52.98
2018-02-23T00:57:15.270Z,53.17
2018-02-23T00:57:55.850Z,52.98
2018-02-23T00:58:36.403Z,52.88
2018-02-23T00:59:16.969Z,52.79
2018-02-23T00:59:57.536Z,53.17
2018-02-23T01:00:38.062Z,53.07
2018-02-23T01:01:18.621Z,53.55
2018-02-23T01:01:59.168Z,53.36
2018-02-23T01:02:39.689Z,53.55
2018-02-23T01:03:20.294Z,53.74
2018-02-23T01:04:00.914Z,54.02
2018-02-23T01:04:41.533Z,53.74
2018-02-23T01:05:22.075Z,54.11
2018-02-23T01:06:02.656Z,54.21
2018-02-23T01:06:43.157Z,54.21
2018-02-23T01:07:23.760Z,54.58
2018-02-23T01:08:04.835Z,54.87
2018-02-23T01:08:45.332Z,54.49
2018-02-23T01:09:25.938Z,54.39
2018-02-23T01:10:06.694Z,54.39
2018-02-23T01:10:47.268Z,55.06
2018-02-23T01:11:27.791Z,55.25
2018-02-23T01:12:08.443Z,55.25
2018-02-23T01:12:48.977Z,55.15
2018-02-23T01:13:29.531Z,55.72
2018-02-23T01:14:10.189Z,55.72
2018-02-23T01:14:50.776Z,55.63
2018-02-23T01:15:31.466Z,55.72
2018-02-23T01:16:12.043Z,55.72
2018-02-23T01:16:52.646Z,55.63
2018-02-23T01:17:33.485Z,56.01
2018-02-23T01:18:14.078Z,55.91
2018-02-23T01:18:54.687Z,56.2
2018-02-23T01:19:35.307Z,56.2
2018-02-23T01:20:15.852Z,56.29
2018-02-23T01:20:56.404Z,56.07
2018-02-23T01:21:37.062Z,56.76
2018-02-23T01:22:18.147Z,56.54
2018-02-23T01:22:58.524Z,56.48
2018-02-23T01:23:39.212Z,56.54
2018-02-23T01:24:19.944Z,56.54
2018-02-23T01:25:00.503Z,56.85
2018-02-23T01:25:41.063Z,56.76
2018-02-23T01:26:21.614Z,56.57
2018-02-23T01:27:02.154Z,56.73
2018-02-23T01:27:42.681Z,56.82
2018-02-23T01:28:23.234Z,57.01
2018-02-23T01:29:03.780Z,57.3
2018-02-23T01:29:44.404Z,57.2
2018-02-23T01:30:24.960Z,57.01
2018-02-23T01:31:05.524Z,57.39
2018-02-23T01:31:46.113Z,57.68
2018-02-23T01:32:26.665Z,57.3
2018-02-23T01:33:07.244Z,57.01
2018-02-23T01:33:47.802Z,57.2
2018-02-23T01:34:28.346Z,57.2
2018-02-23T01:35:08.911Z,56.54
2018-02-23T01:35:49.478Z,56.63
2018-02-23T01:36:30.046Z,56.73
2018-02-23T01:37:10.609Z,56.63
2018-02-23T01:37:51.265Z,57.01
2018-02-23T01:38:31.848Z,57.01
2018-02-23T01:39:12.404Z,56.82
2018-02-23T01:39:52.956Z,57.3
2018-02-23T01:40:33.517Z,57.3
2018-02-23T01:41:14.064Z,57.3
2018-02-23T01:41:54.649Z,57.2
2018-02-23T01:42:35.349Z,57.01
2018-02-23T01:43:15.760Z,57.2
2018-02-23T01:43:56.300Z,57.3
2018-02-23T01:44:36.892Z,57.39
2018-02-23T01:45:17.448Z,57.39
2018-02-23T01:45:57.989Z,57.39
2018-02-23T01:46:38.587Z,57.39
2018-02-23T01:47:19.204Z,57.2
2018-02-23T01:47:59.763Z,57.01
2018-02-23T01:48:40.325Z,57.11
2018-02-23T01:49:20.882Z,57.3
2018-02-23T01:50:01.417Z,57.11
2018-02-23T01:50:42.027Z,57.11
2018-02-23T01:51:22.567Z,57.11
2018-02-23T01:52:03.117Z,57.01
2018-02-23T01:52:43.710Z,57.11
2018-02-23T01:53:24.250Z,57.49
2018-02-23T01:54:04.803Z,57.39
2018-02-23T01:54:45.358Z,57.11
2018-02-23T01:55:25.905Z,57.3
2018-02-23T01:56:06.466Z,57.2
2018-02-23T01:56:47.001Z,56.82
2018-02-23T01:57:27.561Z,56.63
2018-02-23T01:58:08.110Z,56.92
2018-02-23T01:58:48.704Z,56.82
2018-02-23T01:59:29.262Z,56.63
2018-02-23T02:00:09.836Z,56.73
2018-02-23T02:00:50.416Z,57.01
2018-02-23T02:01:30.985Z,56.63
2018-02-23T02:02:11.520Z,56.92
2018-02-23T02:02:52.086Z,56.54
2018-02-23T02:03:32.632Z,56.63
2018-02-23T02:04:13.191Z,56.82
2018-02-23T02:04:53.730Z,56.63
2018-02-23T02:05:34.305Z,56.45
2018-02-23T02:06:14.857Z,56.54
2018-02-23T02:06:55.470Z,56.35
2018-02-23T02:07:36.025Z,56.82
2018-02-23T02:08:16.580Z,56.45
2018-02-23T02:08:57.124Z,56.45
2018-02-23T02:09:37.674Z,56.54
2018-02-23T02:10:18.235Z,56.63
2018-02-23T02:10:58.818Z,56.45
2018-02-23T02:11:39.402Z,56.26
2018-02-23T02:12:19.962Z,56.54
2018-02-23T02:13:00.541Z,56.54
2018-02-23T02:13:41.101Z,56.26
2018-02-23T02:14:21.643Z,55.79
2018-02-23T02:15:02.327Z,55.69
2018-02-23T02:15:42.891Z,55.88
2018-02-23T02:16:23.463Z,55.12
2018-02-23T02:17:04.023Z,55.5
2018-02-23T02:17:44.601Z,54.93
2018-02-23T02:18:25.142Z,54.84
2018-02-23T02:19:05.725Z,54.84
2018-02-23T02:19:46.251Z,54.55
2018-02-23T02:20:26.845Z,54.37
2018-02-23T02:21:07.390Z,54.55
2018-02-23T02:21:47.946Z,54.37
2018-02-23T02:22:28.511Z,54.37
2018-02-23T02:23:09.080Z,54.46
2018-02-23T02:23:49.646Z,54.84
2018-02-23T02:24:30.198Z,54.74
2018-02-23T02:25:10.741Z,54.84
2018-02-23T02:25:51.293Z,54.55
2018-02-23T02:26:31.840Z,54.93
2018-02-23T02:27:12.423Z,55.03
2018-02-23T02:27:52.969Z,55.03
2018-02-23T02:28:33.549Z,55.41
2018-02-23T02:29:14.091Z,55.12
2018-02-23T02:29:54.650Z,55.12
2018-02-23T02:30:35.211Z,55.6
2018-02-23T02:31:15.764Z,55.6
2018-02-23T02:31:56.308Z,55.5
2018-02-23T02:32:36.861Z,55.6
2018-02-23T02:33:17.431Z,55.5
2018-02-23T02:33:58.003Z,55.79
2018-02-23T02:34:38.562Z,55.69
2018-02-23T02:35:19.222Z,55.98
2018-02-23T02:35:59.699Z,55.6
2018-02-23T02:36:40.248Z,55.88
2018-02-23T02:37:20.829Z,55.69
2018-02-23T02:38:01.380Z,55.76
2018-02-23T02:38:41.945Z,55.98
2018-02-23T02:39:22.521Z,55.47
2018-02-23T02:40:03.083Z,55.88
2018-02-23T02:40:43.635Z,55.88
2018-02-23T02:41:24.193Z,56.13
2018-02-23T02:42:04.737Z,56.32
2018-02-23T02:42:45.315Z,56.35
2018-02-23T02:43:25.863Z,56.23
2018-02-23T02:44:06.406Z,56.23
2018-02-23T02:44:46.980Z,55.88
2018-02-23T02:45:27.502Z,55.66
2018-02-23T02:46:08.050Z,55.85
2018-02-23T02:46:48.593Z,55.38
2018-02-23T02:47:29.196Z,56.13
2018-02-23T02:48:09.744Z,56.23
2018-02-23T02:48:50.294Z,56.23
2018-02-23T02:49:30.883Z,56.13
2018-02-23T02:50:11.443Z,56.42
2018-02-23T02:50:52.010Z,56.13
2018-02-23T02:51:32.535Z,56.13
2018-02-23T02:52:13.107Z,56.42
2018-02-23T02:52:53.696Z,56.32
2018-02-23T02:53:34.220Z,56.42
2018-02-23T02:54:14.766Z,56.42
2018-02-23T02:54:55.326Z,56.51
2018-02-23T02:55:35.862Z,56.42
2018-02-23T02:56:16.415Z,56.51
2018-02-23T02:56:57.057Z,56.99
2018-02-23T02:57:37.549Z,56.61
2018-02-23T02:58:18.112Z,56.42
2018-02-23T02:58:58.648Z,56.8
2018-02-23T02:59:39.171Z,56.99
2018-02-23T03:00:19.718Z,56.99
2018-02-23T03:01:00.296Z,57.08
2018-02-23T03:01:40.819Z,57.18
2018-02-23T03:02:21.379Z,57.08
2018-02-23T03:03:01.943Z,57.18
2018-02-23T03:03:42.503Z,57.37
2018-02-23T03:04:23.047Z,57.55
2018-02-23T03:05:03.661Z,57.55
2018-02-23T03:05:44.229Z,57.65
2018-02-23T03:06:24.792Z,57.93
2018-02-23T03:07:05.352Z,57.74
2018-02-23T03:07:45.946Z,57.65
2018-02-23T03:08:26.513Z,57.84
2018-02-23T03:09:07.140Z,57.74
2018-02-23T03:09:47.704Z,57.65
2018-02-23T03:10:28.259Z,57.55
2018-02-23T03:11:08.798Z,57.65
2018-02-23T03:11:49.354Z,57.55
2018-02-23T03:12:29.911Z,57.93
2018-02-23T03:13:10.509Z,58.03
2018-02-23T03:13:51.036Z,58.12
2018-02-23T03:14:31.587Z,57.84
2018-02-23T03:15:12.184Z,57.65
2018-02-23T03:15:52.709Z,57.55
2018-02-23T03:16:33.310Z,57.55
2018-02-23T03:17:13.802Z,57.65
2018-02-23T03:17:54.347Z,57.74
2018-02-23T03:18:34.942Z,57.65
2018-02-23T03:19:15.474Z,58.03
2018-02-23T03:19:56.047Z,57.84
2018-02-23T03:20:36.604Z,58.03
2018-02-23T03:21:17.139Z,58.03
2018-02-23T03:21:57.684Z,58.12
2018-02-23T03:22:38.222Z,57.93
2018-02-23T03:23:18.779Z,58.03
2018-02-23T03:23:59.368Z,58.5
2018-02-23T03:24:39.888Z,58.4
2018-02-23T03:25:20.444Z,58.31
2018-02-23T03:26:00.992Z,58.5
2018-02-23T03:26:41.526Z,58.4
2018-02-23T03:27:22.157Z,58.31
2018-02-23T03:28:02.731Z,58.4
2018-02-23T03:28:43.282Z,58.69
2018-02-23T03:29:23.835Z,58.97
2018-02-23T03:30:04.386Z,58.69
2018-02-23T03:30:44.929Z,58.87
2018-02-23T03:31:25.480Z,59.06
2018-02-23T03:32:06.087Z,59.25
2018-02-23T03:32:46.630Z,58.87
2018-02-23T03:33:27.192Z,58.69
2018-02-23T03:34:07.766Z,58.78
2018-02-23T03:34:48.319Z,58.97
2018-02-23T03:35:28.881Z,58.87
2018-02-23T03:36:09.445Z,59.35
2018-02-23T03:36:50.003Z,58.97
2018-02-23T03:37:30.560Z,59.54
2018-02-23T03:38:11.103Z,59.06
2018-02-23T03:38:51.701Z,59.82
2018-02-23T03:39:32.226Z,59.35
2018-02-23T03:40:12.756Z,59.73
2018-02-23T03:40:53.349Z,59.82
2018-02-23T03:41:33.889Z,59.82
2018-02-23T03:42:14.443Z,59.73
2018-02-23T03:42:55.003Z,59.73
2018-02-23T03:43:35.546Z,59.44
2018-02-23T03:44:16.113Z,59.82
2018-02-23T03:44:56.696Z,59.44
2018-02-23T03:45:37.263Z,59.73
2018-02-23T03:46:17.821Z,59.54
2018-02-23T03:46:58.370Z,59.54
2018-02-23T03:47:38.955Z,59.54
2018-02-23T03:48:19.518Z,59.82
2018-02-23T03:49:00.067Z,60.01
2018-02-23T03:49:40.624Z,60.2
2018-02-23T03:50:21.172Z,60.39
2018-02-23T03:51:01.706Z,60.58
2018-02-23T03:51:42.251Z,60.2
2018-02-23T03:52:22.803Z,60.58
2018-02-23T03:53:03.352Z,60.86
2018-02-23T03:53:43.920Z,61.15
2018-02-23T03:54:24.489Z,60.39
2018-02-23T03:55:05.057Z,61.05
2018-02-23T03:55:45.611Z,60.86
2018-02-23T03:56:26.193Z,60.96
2018-02-23T03:57:06.756Z,61.05
2018-02-23T03:57:47.326Z,61.24
2018-02-23T03:58:27.861Z,60.96
2018-02-23T03:59:08.422Z,60.96
2018-02-23T03:59:48.950Z,61.24
2018-02-23T04:00:29.494Z,61.24
2018-02-23T04:01:10.038Z,61.61
2018-02-23T04:01:50.612Z,61.71
2018-02-23T04:02:31.146Z,61.43
2018-02-23T04:03:11.711Z,61.24
2018-02-23T04:03:52.254Z,61.61
2018-02-23T04:04:32.807Z,61.52
2018-02-23T04:05:13.371Z,61.71
2018-02-23T04:05:53.913Z,61.8
2018-02-23T04:06:34.468Z,61.61
2018-02-23T04:07:15.032Z,61.43
2018-02-23T04:07:55.609Z,61.24
2018-02-23T04:08:36.133Z,61.52
2018-02-23T04:09:16.740Z,61.43
2018-02-23T04:09:57.322Z,61.52
2018-02-23T04:10:37.914Z,61.61
2018-02-23T04:11:18.465Z,61.43
2018-02-23T04:11:59.013Z,61.61
2018-02-23T04:12:39.543Z,61.43
2018-02-23T04:13:20.101Z,61.8
2018-02-23T04:14:00.717Z,61.8
2018-02-23T04:14:41.276Z,61.71
2018-02-23T04:15:21.857Z,61.9
2018-02-23T04:16:02.479Z,61.99
2018-02-23T04:16:43.022Z,61.71
2018-02-23T04:17:23.564Z,62.28
2018-02-23T04:18:04.113Z,62.28
2018-02-23T04:18:44.665Z,61.9
2018-02-23T04:19:25.212Z,61.99
2018-02-23T04:20:05.737Z,61.8
2018-02-23T04:20:46.316Z,62.37
2018-02-23T04:21:26.899Z,62.09
2018-02-23T04:22:07.423Z,62.56
2018-02-23T04:22:47.976Z,62.47
2018-02-23T04:23:28.533Z,62.28
2018-02-23T04:24:09.071Z,62.18
2018-02-23T04:24:49.630Z,62.56
2018-02-23T04:25:30.181Z,62.37
2018-02-23T04:26:10.728Z,62.94
2018-02-23T04:26:51.256Z,62.66
2018-02-23T04:27:31.825Z,62.75
2018-02-23T04:28:12.385Z,63.13
2018-02-23T04:28:52.979Z,62.94
2018-02-23T04:29:33.559Z,63.32
2018-02-23T04:30:14.095Z,63.23
2018-02-23T04:30:54.682Z,63.51
2018-02-23T04:31:35.237Z,63.51
2018-02-23T04:32:15.854Z,63.42
2018-02-23T04:32:56.408Z,63.51
2018-02-23T04:33:36.955Z,63.6
2018-02-23T04:34:17.521Z,63.51
2018-02-23T04:34:58.077Z,63.51
2018-02-23T04:35:38.627Z,63.6
2018-02-23T04:36:19.195Z,63.51
2018-02-23T04:36:59.768Z,63.6
2018-02-23T04:37:40.305Z,63.6
2018-02-23T04:38:20.914Z,63.42
2018-02-23T04:39:01.474Z,63.6
2018-02-23T04:39:42.031Z,63.42
2018-02-23T04:40:22.579Z,63.7
2018-02-23T04:41:03.111Z,63.6
2018-02-23T04:41:43.682Z,63.42
2018-02-23T04:42:24.230Z,63.32
2018-02-23T04:43:04.772Z,63.51
2018-02-23T04:43:45.318Z,63.6
2018-02-23T04:44:25.869Z,63.23
2018-02-23T04:45:06.434Z,63.6
2018-02-23T04:45:46.995Z,63.51
2018-02-23T04:46:27.550Z,63.42
2018-02-23T04:47:08.093Z,63.42
2018-02-23T04:47:48.646Z,63.42
2018-02-23T04:48:29.198Z,63.42
2018-02-23T04:49:09.744Z,63.51
2018-02-23T04:49:50.287Z,63.6
2018-02-23T04:50:30.831Z,63.6
2018-02-23T04:51:11.375Z,63.23
2018-02-23T04:51:51.997Z,63.79
2018-02-23T04:52:32.576Z,63.51
2018-02-23T04:53:13.122Z,63.95
2018-02-23T04:53:53.686Z,64.07
2018-02-23T04:54:34.221Z,63.98
2018-02-23T04:55:14.776Z,64.14
2018-02-23T04:55:55.337Z,64.14
2018-02-23T04:56:35.907Z,64.23
2018-02-23T04:57:16.452Z,64.04
2018-02-23T04:57:57.003Z,64.51
2018-02-23T04:58:37.557Z,64.51
2018-02-23T04:59:18.096Z,64.32
2018-02-23T04:59:58.665Z,64.89
2018-02-23T05:00:39.218Z,64.7
2018-02-23T05:01:19.769Z,65.08
2018-02-23T05:02:00.309Z,64.98
2018-02-23T05:02:40.862Z,65.27
2018-02-23T05:03:21.419Z,65.17
2018-02-23T05:04:01.972Z,65.36
2018-02-23T05:04:42.544Z,65.17
2018-02-23T05:05:23.118Z,65.55
2018-02-23T05:06:03.672Z,65.65
2018-02-23T05:06:44.254Z,65.46
2018-02-23T05:07:24.818Z,65.46
2018-02-23T05:08:05.353Z,65.46
2018-02-23T05:08:45.905Z,65.36
2018-02-23T05:09:26.444Z,65.36
2018-02-23T05:10:07.014Z,65.17
2018-02-23T05:10:47.620Z,65.36
2018-02-23T05:11:28.149Z,65.27
2018-02-23T05:12:08.712Z,65.55
2018-02-23T05:12:49.240Z,65.65
2018-02-23T05:13:29.791Z,65.65
2018-02-23T05:14:10.354Z,65.36
2018-02-23T05:14:50.900Z,65.46
2018-02-23T05:15:31.468Z,65.36
2018-02-23T05:16:12.057Z,65.36
2018-02-23T05:16:52.676Z,65.17
2018-02-23T05:17:33.201Z,65.36
2018-02-23T05:18:13.721Z,65.65
2018-02-23T05:18:54.349Z,65.55
2018-02-23T05:19:34.887Z,65.55
2018-02-23T05:20:15.422Z,65.46
2018-02-23T05:20:56.002Z,65.27
2018-02-23T05:21:36.579Z,65.17
2018-02-23T05:22:17.151Z,65.65
2018-02-23T05:22:57.677Z,65.55
2018-02-23T05:23:38.227Z,65.74
2018-02-23T05:24:18.782Z,65.27
2018-02-23T05:24:59.349Z,65.74
2018-02-23T05:25:39.938Z,65.65
2018-02-23T05:26:20.498Z,65.84
2018-02-23T05:27:01.020Z,65.74
2018-02-23T05:27:41.664Z,65.84
2018-02-23T05:28:22.239Z,65.93
2018-02-23T05:29:02.799Z,66.12
2018-02-23T05:29:43.572Z,66.12
2018-02-23T05:30:24.076Z,66.59
2018-02-23T05:31:04.630Z,66.88
2018-02-23T05:31:45.176Z,66.78
2018-02-23T05:32:25.805Z,67.16
2018-02-23T05:33:06.360Z,67.13
2018-02-23T05:33:46.911Z,67.35
2018-02-23T05:34:27.459Z,67.35
2018-02-23T05:35:08.059Z,67.22
2018-02-23T05:35:48.600Z,67.07
2018-02-23T05:36:29.141Z,67.13
2018-02-23T05:37:09.687Z,67.32
2018-02-23T05:37:50.246Z,67.32
2018-02-23T05:38:30.807Z,67.79
2018-02-23T05:39:11.360Z,67.6
2018-02-23T05:39:51.939Z,67.69
2018-02-23T05:40:32.484Z,67.16
2018-02-23T05:41:13.127Z,67.07
2018-02-23T05:41:53.665Z,67.35
2018-02-23T05:42:34.223Z,67.44
2018-02-23T05:43:14.734Z,67.32
2018-02-23T05:43:55.280Z,67.5
2018-02-23T05:44:35.838Z,67.07
2018-02-23T05:45:16.387Z,67.07
2018-02-23T05:45:56.976Z,67.03
2018-02-23T05:46:37.527Z,67.16
2018-02-23T05:47:18.059Z,67.22
2018-02-23T05:47:58.625Z,67.16
2018-02-23T05:48:39.181Z,66.97
2018-02-23T05:49:19.731Z,67.13
2018-02-23T05:50:00.334Z,66.69
2018-02-23T05:50:40.910Z,66.69
2018-02-23T05:51:21.470Z,66.65
2018-02-23T05:52:01.999Z,66.94
2018-02-23T05:52:42.567Z,66.56
2018-02-23T05:53:23.135Z,67.13
2018-02-23T05:54:03.687Z,67.32
2018-02-23T05:54:44.326Z,67.13
2018-02-23T05:55:24.891Z,67.13
2018-02-23T05:56:05.438Z,66.94
2018-02-23T05:56:46.005Z,67.13
2018-02-23T05:57:26.530Z,67.13
2018-02-23T05:58:07.097Z,67.03
2018-02-23T05:58:47.640Z,67.32
2018-02-23T05:59:28.187Z,67.13
2018-02-23T06:00:08.748Z,67.13
2018-02-23T06:00:49.301Z,66.94
2018-02-23T06:01:29.843Z,67.32
2018-02-23T06:02:10.393Z,67.79
2018-02-23T06:02:50.949Z,67.13
2018-02-23T06:03:31.528Z,67.32
2018-02-23T06:04:12.078Z,66.94
2018-02-23T06:04:52.633Z,67.22
2018-02-23T06:05:33.209Z,67.32
2018-02-23T06:06:13.760Z,67.22
2018-02-23T06:06:54.319Z,67.79
2018-02-23T06:07:34.875Z,67.5
2018-02-23T06:08:15.458Z,67.69
2018-02-23T06:08:55.981Z,67.41
2018-02-23T06:09:36.547Z,67.41
2018-02-23T06:10:17.098Z,67.79
2018-02-23T06:10:57.638Z,67.6
2018-02-23T06:11:38.186Z,67.6
2018-02-23T06:12:18.753Z,67.88
2018-02-23T06:12:59.312Z,68.07
2018-02-23T06:13:39.851Z,67.6
2018-02-23T06:14:20.405Z,68.07
2018-02-23T06:15:00.975Z,68.26
2018-02-23T06:15:41.526Z,67.97
2018-02-23T06:16:22.061Z,68.35
2018-02-23T06:17:02.617Z,68.35
2018-02-23T06:17:43.174Z,68.44
2018-02-23T06:18:23.712Z,68.35
2018-02-23T06:19:04.278Z,68.73
2018-02-23T06:19:44.858Z,68.26
2018-02-23T06:20:25.462Z,68.35
2018-02-23T06:21:06.288Z,68.26
2018-02-23T06:21:46.905Z,69.01
2018-02-23T06:22:27.449Z,69.01
2018-02-23T06:23:08.074Z,68.44
2018-02-23T06:23:48.630Z,68.35
2018-02-23T06:24:29.369Z,68.44
2018-02-23T06:25:09.952Z,68.63
2018-02-23T06:25:50.530Z,68.26
2018-02-23T06:26:31.095Z,68.26
2018-02-23T06:27:11.654Z,68.54
2018-02-23T06:27:52.215Z,68.82
2018-02-23T06:28:32.772Z,68.54
2018-02-23T06:29:13.330Z,68.35
2018-02-23T06:29:53.879Z,68.73
2018-02-23T06:30:34.426Z,68.82
2018-02-23T06:31:15.014Z,68.73
2018-02-23T06:31:55.581Z,68.73
2018-02-23T06:32:36.153Z,68.73
2018-02-23T06:33:16.769Z,68.73
2018-02-23T06:33:57.317Z,69.01
2018-02-23T06:34:37.862Z,68.63
2018-02-23T06:35:18.403Z,68.82
2018-02-23T06:35:58.976Z,69.2
2018-02-23T06:36:39.528Z,69.11
2018-02-23T06:37:20.106Z,69.11
2018-02-23T06:38:00.681Z,69.3
2018-02-23T06:38:41.257Z,68.82
2018-02-23T06:39:21.809Z,68.63
2018-02-23T06:40:02.894Z,68.44
2018-02-23T06:40:43.330Z,69.01
2018-02-23T06:41:23.885Z,68.54
2018-02-23T06:42:04.452Z,68.73
2018-02-23T06:42:45.004Z,68.82
2018-02-23T06:43:25.559Z,69.2
2018-02-23T06:44:06.124Z,68.82
2018-02-23T06:44:46.701Z,68.63
2018-02-23T06:45:27.207Z,68.92
2018-02-23T06:46:07.760Z,68.73
2018-02-23T06:46:48.344Z,68.82
2018-02-23T06:47:28.883Z,68.82
2018-02-23T06:48:09.507Z,68.73
2018-02-23T06:48:49.972Z,68.73
2018-02-23T06:49:30.542Z,68.26
2018-02-23T06:50:11.117Z,68.16
2018-02-23T06:50:51.693Z,68.26
2018-02-23T06:51:32.238Z,68.26
2018-02-23T06:52:12.797Z,68.35
2018-02-23T06:52:53.350Z,68.35
2018-02-23T06:53:33.916Z,68.16
2018-02-23T06:54:14.490Z,68.26
2018-02-23T06:54:55.046Z,68.16
2018-02-23T06:55:35.627Z,68.16
2018-02-23T06:56:16.259Z,68.26
2018-02-23T06:56:56.836Z,68.07
2018-02-23T06:57:37.382Z,68.54
2018-02-23T06:58:17.936Z,68.07
2018-02-23T06:58:58.501Z,68.26
2018-02-23T06:59:39.084Z,67.97
2018-02-23T07:00:19.631Z,68.07
2018-02-23T07:01:00.179Z,67.97
2018-02-23T07:01:40.755Z,68.07
2018-02-23T07:02:21.339Z,68.16
2018-02-23T07:03:01.903Z,68.07
2018-02-23T07:03:42.459Z,68.35
2018-02-23T07:04:23.038Z,68.07
2018-02-23T07:05:03.602Z,68.16
2018-02-23T07:05:44.169Z,68.07
2018-02-23T07:06:24.708Z,68.35
2018-02-23T07:07:05.307Z,68.35
2018-02-23T07:07:45.853Z,68.16
2018-02-23T07:08:26.386Z,68.26
2018-02-23T07:09:06.953Z,68.35
2018-02-23T07:09:47.686Z,68.16
2018-02-23T07:10:28.226Z,68.35
2018-02-23T07:11:08.807Z,68.26
2018-02-23T07:11:49.305Z,68.44
2018-02-23T07:12:29.923Z,68.35
2018-02-23T07:13:10.461Z,68.26
2018-02-23T07:13:51.041Z,68.16
2018-02-23T07:14:31.610Z,68.07
2018-02-23T07:15:12.208Z,68.16
2018-02-23T07:15:52.746Z,68.07
2018-02-23T07:16:34.025Z,68.63
2018-02-23T07:17:14.957Z,68.54
2018-02-23T07:17:55.512Z,68.73
2018-02-23T07:18:36.812Z,68.92
2018-02-23T07:19:17.386Z,68.63
2018-02-23T07:19:57.935Z,68.63
2018-02-23T07:20:38.485Z,68.73
2018-02-23T07:21:19.060Z,68.26
2018-02-23T07:21:59.606Z,68.35
2018-02-23T07:22:40.151Z,67.97
2018-02-23T07:23:20.715Z,67.97
2018-02-23T07:24:01.348Z,68.07
2018-02-23T07:24:41.822Z,68.07
2018-02-23T07:25:22.376Z,68.63
2018-02-23T07:26:02.931Z,68.54
2018-02-23T07:26:43.496Z,68.82
2018-02-23T07:27:24.037Z,69.01
2018-02-23T07:28:04.598Z,68.63
2018-02-23T07:28:45.152Z,69.2
2018-02-23T07:29:25.700Z,69.3
2018-02-23T07:30:06.270Z,69.3
2018-02-23T07:30:46.816Z,69.39
2018-02-23T07:31:27.386Z,69.49
2018-02-23T07:32:07.909Z,69.49
2018-02-23T07:32:48.483Z,69.49
2018-02-23T07:33:29.021Z,69.49
2018-02-23T07:34:09.569Z,69.67
2018-02-23T07:34:50.127Z,69.67
2018-02-23T07:35:30.677Z,69.58
2018-02-23T07:36:11.250Z,69.58
2018-02-23T07:36:51.824Z,69.49
2018-02-23T07:37:32.382Z,69.49
2018-02-23T07:38:12.978Z,69.58
2018-02-23T07:38:53.528Z,69.67
2018-02-23T07:39:34.074Z,68.63
2018-02-23T07:40:14.656Z,68.82
2018-02-23T07:40:55.197Z,68.82
2018-02-23T07:41:35.761Z,68.92
2018-02-23T07:42:16.305Z,68.73
2018-02-23T07:42:56.967Z,68.82
2018-02-23T07:43:37.542Z,68.35
2018-02-23T07:44:18.101Z,68.44
2018-02-23T07:45:00.448Z,68.16
2018-02-23T07:45:40.988Z,68.16
2018-02-23T07:46:21.540Z,68.16
2018-02-23T07:47:02.183Z,68.26
2018-02-23T07:47:42.742Z,68.35
2018-02-23T07:48:23.286Z,68.07
2018-02-23T07:49:03.843Z,67.88
2018-02-23T07:49:44.409Z,67.6
2018-02-23T07:50:24.980Z,67.97
2018-02-23T07:51:05.500Z,67.97
2018-02-23T07:51:47.099Z,68.07
2018-02-23T07:52:27.724Z,68.26
2018-02-23T07:53:08.279Z,67.88
2018-02-23T07:53:48.828Z,67.91
2018-02-23T07:54:29.384Z,67.69
2018-02-23T07:55:09.941Z,67.97
2018-02-23T07:55:50.537Z,67.5
2018-02-23T07:56:31.148Z,67.69
2018-02-23T07:57:11.682Z,67.97
2018-02-23T07:57:52.415Z,67.97
2018-02-23T07:58:33.005Z,67.72
2018-02-23T07:59:14.373Z,67.79
2018-02-23T07:59:55.630Z,67.69
2018-02-23T08:00:36.181Z,67.82
2018-02-23T08:01:16.751Z,67.5
2018-02-23T08:01:57.273Z,67.69
2018-02-23T08:02:37.842Z,67.5
2018-02-23T08:03:18.383Z,67.72
2018-02-23T08:03:59.297Z,67.54
2018-02-23T08:04:39.838Z,67.82
2018-02-23T08:05:20.433Z,67.35
2018-02-23T08:06:01.096Z,67.07
2018-02-23T08:06:41.702Z,67.54
2018-02-23T08:07:22.907Z,67.07
2018-02-23T08:08:03.499Z,66.88
2018-02-23T08:08:44.017Z,66.88
2018-02-23T08:09:24.576Z,67.07
2018-02-23T08:10:05.391Z,67.35
2018-02-23T08:10:45.855Z,66.88
2018-02-23T08:11:26.424Z,66.5
2018-02-23T08:12:07.068Z,66.03
2018-02-23T08:12:47.838Z,65.74
2018-02-23T08:13:28.455Z,65.27
2018-02-23T08:14:08.999Z,65.4
2018-02-23T08:14:49.550Z,64.07
2018-02-23T08:15:30.112Z,63.51
2018-02-23T08:16:10.838Z,63.32
2018-02-23T08:16:51.406Z,62.66
2018-02-23T08:17:31.938Z,62.59
2018-02-23T08:18:12.530Z,61.46
2018-02-23T08:18:53.114Z,60.52
2018-02-23T08:19:33.671Z,59.95
2018-02-23T08:20:14.238Z,59.41
2018-02-23T08:20:54.775Z,58.94
2018-02-23T08:21:35.357Z,58.09
2018-02-23T08:22:15.916Z,57.07
2018-02-23T08:22:56.583Z,55.75
2018-02-23T08:23:37.165Z,54.8
2018-02-23T08:24:18.614Z,54.52
2018-02-23T08:24:59.225Z,54.42
2018-02-23T08:25:39.770Z,54.23
2018-02-23T08:26:20.318Z,53.47
2018-02-23T08:27:00.872Z,53.41
2018-02-23T08:27:41.448Z,52.84
2018-02-23T08:28:22.022Z,52.65
2018-02-23T08:29:02.592Z,52.37
2018-02-23T08:29:43.167Z,51.64
2018-02-23T08:30:23.724Z,51.26
2018-02-23T08:31:04.272Z,50.97
2018-02-23T08:31:44.825Z,49.84
2018-02-23T08:32:25.393Z,49.65
2018-02-23T08:33:05.924Z,49.08
2018-02-23T08:33:46.480Z,48.32
2018-02-23T08:34:27.057Z,48.22
2018-02-23T08:35:07.674Z,48.32
2018-02-23T08:35:48.256Z,47.94
2018-02-23T08:36:28.824Z,46.8
2018-02-23T08:37:09.434Z,46.99
2018-02-23T08:37:49.994Z,47.11
2018-02-23T08:38:30.589Z,47.11
2018-02-23T08:39:11.159Z,46.92
2018-02-23T08:39:51.786Z,46.35
2018-02-23T08:40:32.417Z,46.54
2018-02-23T08:41:13.072Z,46.07
2018-02-23T08:41:53.635Z,46.26
2018-02-23T08:42:34.307Z,46.35
2018-02-23T08:43:14.879Z,46.54
2018-02-23T08:43:55.799Z,46.64
2018-02-23T08:44:36.396Z,46.54